Terminal Aerodrome Forecast
Issued by NWS Twin Cities, MN

Home | Current Version | Previous Version | Graphics & Text | Print | Product List | Glossary On
Versions: 1 2 3 4 5 6 7 8 9 10 11 12 13 14 15 16 17 18 19 20 21 22 23 24 25 26 27 28
000
FTUS43 KMPX 160919 AAB
TAFMSP
TAF AMD
KMSP 160919Z 1609/1712 31009KT P6SM SCT018 BKN050
      TEMPO 1609/1611 BKN016
     FM161600 30007KT P6SM FEW018
     FM170000 24004KT P6SM SCT100=

USA.gov is the U.S. government's official web portal to all federal, state and local government web resources and services.